createdAt,value
2023-03-12T00:02:32.413Z,-2.31
2023-03-12T00:06:33.781Z,-2.27
2023-03-12T00:10:35.286Z,-2.32
2023-03-12T00:14:36.647Z,-2.21
2023-03-12T00:18:39.560Z,-2.32
2023-03-12T00:22:41.069Z,-2.42
2023-03-12T00:26:42.455Z,-2.53
2023-03-12T00:30:43.857Z,-2.49
2023-03-12T00:34:50.000Z,-2.58
2023-03-12T00:38:51.462Z,-2.60
2023-03-12T00:42:52.822Z,-2.69
2023-03-12T00:46:54.172Z,-2.68
2023-03-12T00:50:56.936Z,-2.76
2023-03-12T00:54:58.373Z,-2.74
2023-03-12T00:58:59.867Z,-2.59
2023-03-12T01:03:01.257Z,-2.69
2023-03-12T01:07:04.108Z,-2.82
2023-03-12T01:11:05.694Z,-2.81
2023-03-12T01:15:07.841Z,-2.72
2023-03-12T01:19:09.209Z,-2.96
2023-03-12T01:23:11.961Z,-2.99
2023-03-12T01:27:13.391Z,-2.81
2023-03-12T01:31:16.314Z,-2.81
2023-03-12T01:35:17.809Z,-2.76
2023-03-12T01:39:20.552Z,-3.01
2023-03-12T01:43:27.099Z,-3.04
2023-03-12T01:47:29.237Z,-2.98
2023-03-12T01:51:32.106Z,-2.96
2023-03-12T01:55:34.923Z,-3.13
2023-03-12T01:59:38.748Z,-3.11
2023-03-12T02:03:40.796Z,-3.09
2023-03-12T02:07:42.274Z,-3.19
2023-03-12T02:11:45.001Z,-3.15
2023-03-12T02:15:46.503Z,-3.19
2023-03-12T02:19:52.946Z,-3.05
2023-03-12T02:23:58.529Z,-3.22
2023-03-12T02:28:03.063Z,-3.21
2023-03-12T02:32:05.787Z,-3.18
2023-03-12T02:36:07.695Z,-3.19
2023-03-12T02:40:13.326Z,-3.29
2023-03-12T02:44:16.973Z,-3.23
2023-03-12T02:48:18.323Z,-3.39
2023-03-12T02:52:19.785Z,-3.32
2023-03-12T02:56:21.779Z,-3.32
2023-03-12T03:00:24.701Z,-3.32
2023-03-12T03:04:26.598Z,-3.24
2023-03-12T03:08:27.974Z,-3.31
2023-03-12T03:12:29.516Z,-3.21
2023-03-12T03:16:32.690Z,-3.23
2023-03-12T03:20:34.046Z,-3.35
2023-03-12T03:24:35.402Z,-3.43
2023-03-12T03:28:36.774Z,-3.35
2023-03-12T03:32:39.523Z,-3.34
2023-03-12T03:36:40.907Z,-3.25
2023-03-12T03:40:42.380Z,-3.25
2023-03-12T03:44:43.784Z,-3.34
2023-03-12T03:48:46.507Z,-3.29
2023-03-12T03:52:47.866Z,-3.33
2023-03-12T03:56:49.282Z,-3.22
2023-03-12T04:00:50.843Z,-3.19
2023-03-12T04:04:56.516Z,-3.18
2023-03-12T04:08:57.923Z,-3.02
2023-03-12T04:12:59.276Z,-3.00
2023-03-12T04:17:00.717Z,-2.77
2023-03-12T04:21:03.589Z,-2.69
2023-03-12T04:25:06.271Z,-2.68
2023-03-12T04:29:07.651Z,-2.68
2023-03-12T04:33:09.007Z,-2.55
2023-03-12T04:37:11.859Z,-2.47
2023-03-12T04:41:14.371Z,-2.35
2023-03-12T04:45:15.739Z,-2.33
2023-03-12T04:49:17.124Z,-2.21
2023-03-12T04:53:19.999Z,-2.25
2023-03-12T04:57:21.768Z,-2.21
2023-03-12T05:01:25.341Z,-2.15
2023-03-12T05:05:26.684Z,-2.11
2023-03-12T05:09:29.422Z,-2.10
2023-03-12T05:13:30.770Z,-2.09
2023-03-12T05:17:32.159Z,-1.74
2023-03-12T05:21:33.554Z,-1.56
2023-03-12T05:25:39.585Z,-1.55
2023-03-12T05:29:40.951Z,-1.76
2023-03-12T05:33:42.712Z,-1.93
2023-03-12T05:37:44.083Z,-1.85
2023-03-12T05:41:46.765Z,-1.77
2023-03-12T05:45:48.213Z,-1.74
2023-03-12T05:49:49.651Z,-1.48
2023-03-12T05:53:51.029Z,-1.37
2023-03-12T05:57:53.749Z,-1.57
2023-03-12T06:01:55.131Z,-1.42
2023-03-12T06:05:56.606Z,-1.42
2023-03-12T06:09:58.110Z,-1.28
2023-03-12T06:14:01.103Z,-1.18
2023-03-12T06:18:02.443Z,-1.18
2023-03-12T06:22:03.789Z,-1.12
2023-03-12T06:26:05.532Z,-1.06
2023-03-12T06:30:09.078Z,-0.95
2023-03-12T06:34:10.447Z,-0.98
2023-03-12T06:38:11.831Z,-0.97
2023-03-12T06:42:13.195Z,-0.61
2023-03-12T06:46:16.920Z,-0.33
2023-03-12T06:50:18.423Z,-0.14
2023-03-12T06:54:19.795Z,0.19
2023-03-12T06:58:21.206Z,0.25
2023-03-12T07:02:24.019Z,0.41
2023-03-12T07:06:25.459Z,0.40
2023-03-12T07:10:26.842Z,0.37
2023-03-12T07:14:28.202Z,0.70
2023-03-12T07:18:31.023Z,0.73
2023-03-12T07:22:32.356Z,1.00
2023-03-12T07:26:34.117Z,1.06
2023-03-12T07:30:35.537Z,1.45
2023-03-12T07:34:38.372Z,1.59
2023-03-12T07:38:39.737Z,1.79
2023-03-12T07:42:41.056Z,1.81
2023-03-12T07:46:42.494Z,2.21
2023-03-12T07:50:45.299Z,2.54
2023-03-12T07:54:46.865Z,2.89
2023-03-12T07:58:48.365Z,3.04
2023-03-12T08:02:50.307Z,3.03
2023-03-12T08:06:53.301Z,2.83
2023-03-12T08:10:55.077Z,2.86
2023-03-12T08:14:56.464Z,3.40
2023-03-12T08:18:58.000Z,3.44
2023-03-12T08:23:00.707Z,3.12
2023-03-12T08:27:02.076Z,3.01
2023-03-12T08:31:03.558Z,3.13
2023-03-12T08:35:05.256Z,3.36
2023-03-12T08:39:08.115Z,3.79
2023-03-12T08:43:09.470Z,4.08
2023-03-12T08:47:11.010Z,4.01
2023-03-12T08:51:13.439Z,3.60
2023-03-12T08:55:17.777Z,4.06
2023-03-12T08:59:19.573Z,3.98
2023-03-12T09:03:21.403Z,4.13
2023-03-12T09:07:22.915Z,4.23
2023-03-12T09:11:25.697Z,4.45
2023-03-12T09:15:27.126Z,4.72
2023-03-12T09:19:28.521Z,4.60
2023-03-12T09:23:29.864Z,4.79
2023-03-12T09:27:35.209Z,4.62
2023-03-12T09:31:36.618Z,4.15
2023-03-12T09:35:38.052Z,3.96
2023-03-12T09:39:39.401Z,4.35
2023-03-12T09:43:45.605Z,4.08
2023-03-12T09:47:48.741Z,4.41
2023-03-12T09:51:53.765Z,4.30
2023-03-12T09:55:56.352Z,4.61
2023-03-12T09:59:59.275Z,4.57
2023-03-12T10:04:07.387Z,4.81
2023-03-12T10:08:23.820Z,5.19
2023-03-12T10:12:34.448Z,5.48
2023-03-12T10:16:43.869Z,5.19
2023-03-12T10:21:01.455Z,5.31
2023-03-12T10:25:08.044Z,5.19
2023-03-12T10:29:12.974Z,5.28
2023-03-12T10:33:17.558Z,5.74
2023-03-12T10:37:22.425Z,6.09
2023-03-12T10:41:24.797Z,5.70
2023-03-12T10:45:27.551Z,5.97
2023-03-12T10:49:31.489Z,5.81
2023-03-12T10:53:33.518Z,6.02
2023-03-12T10:57:39.427Z,6.31
2023-03-12T11:01:47.489Z,6.83
2023-03-12T11:05:51.776Z,6.25
2023-03-12T11:10:14.127Z,6.41
2023-03-12T11:14:16.626Z,6.68
2023-03-12T11:18:22.750Z,6.24
2023-03-12T11:22:29.676Z,5.91
2023-03-12T11:26:32.010Z,5.97
2023-03-12T11:30:36.959Z,5.91
2023-03-12T11:34:39.470Z,5.95
2023-03-12T11:38:45.516Z,5.66
2023-03-12T11:42:56.593Z,5.57
2023-03-12T11:47:15.666Z,5.52
2023-03-12T11:51:22.128Z,5.42
2023-03-12T11:55:37.060Z,5.50
2023-03-12T11:59:46.636Z,5.68
2023-03-12T12:04:00.875Z,5.68
2023-03-12T12:08:12.409Z,5.39
2023-03-12T12:12:24.953Z,5.27
2023-03-12T12:16:31.972Z,5.19
2023-03-12T12:20:39.285Z,5.17
2023-03-12T12:24:52.399Z,5.16
2023-03-12T12:29:14.771Z,5.00
2023-03-12T12:33:20.608Z,5.13
2023-03-12T12:37:24.745Z,5.16
2023-03-12T12:41:27.130Z,5.25
2023-03-12T12:45:31.154Z,5.32
2023-03-12T12:49:35.957Z,5.36
2023-03-12T12:53:40.883Z,5.16
2023-03-12T12:57:44.852Z,5.21
2023-03-12T13:01:48.577Z,5.01
2023-03-12T13:05:54.788Z,5.12
2023-03-12T13:09:56.861Z,4.81
2023-03-12T13:14:13.105Z,5.12
2023-03-12T13:18:20.893Z,5.14
2023-03-12T13:22:27.042Z,5.16
2023-03-12T13:26:30.971Z,5.28
2023-03-12T13:30:45.709Z,5.35
2023-03-12T13:34:48.805Z,5.34
2023-03-12T13:38:54.598Z,5.31
2023-03-12T13:43:01.697Z,5.32
2023-03-12T13:47:04.254Z,5.13
2023-03-12T13:51:12.078Z,5.04
2023-03-12T13:55:18.004Z,4.99
2023-03-12T13:59:19.464Z,5.03
2023-03-12T14:03:23.288Z,4.79
2023-03-12T14:07:38.741Z,4.80
2023-03-12T14:11:46.092Z,4.72
2023-03-12T14:15:51.445Z,4.86
2023-03-12T14:19:57.160Z,4.72
2023-03-12T14:24:00.330Z,4.78
2023-03-12T14:28:02.602Z,4.72
2023-03-12T14:32:05.911Z,4.58
2023-03-12T14:36:11.665Z,4.57
2023-03-12T14:40:20.982Z,4.61
2023-03-12T14:44:23.291Z,4.68
2023-03-12T14:48:27.609Z,4.71
2023-03-12T14:52:29.469Z,4.38
2023-03-12T14:56:33.320Z,4.60
2023-03-12T15:00:35.020Z,4.55
2023-03-12T15:04:36.542Z,4.46
2023-03-12T15:08:39.557Z,4.61
2023-03-12T15:12:45.128Z,4.69
2023-03-12T15:16:46.624Z,4.64
2023-03-12T15:20:49.136Z,4.50
2023-03-12T15:24:50.912Z,4.63
2023-03-12T15:28:57.143Z,4.46
2023-03-12T15:33:06.095Z,4.51
2023-03-12T15:37:20.606Z,4.30
2023-03-12T15:41:23.159Z,4.54
2023-03-12T15:45:30.391Z,4.61
2023-03-12T15:49:34.196Z,4.60
2023-03-12T15:53:35.575Z,4.62
2023-03-12T15:57:45.108Z,4.67
2023-03-12T16:01:48.602Z,4.76
2023-03-12T16:05:50.459Z,4.78
2023-03-12T16:09:51.810Z,4.80
2023-03-12T16:13:57.241Z,4.89
2023-03-12T16:18:00.085Z,5.00
2023-03-12T16:22:01.439Z,5.16
2023-03-12T16:26:04.589Z,5.38
2023-03-12T16:30:07.301Z,5.47
2023-03-12T16:34:11.123Z,5.47
2023-03-12T16:38:12.582Z,5.51
2023-03-12T16:42:15.624Z,5.49
2023-03-12T16:46:19.324Z,5.55
2023-03-12T16:50:22.386Z,5.50
2023-03-12T16:54:23.848Z,5.52
2023-03-12T16:58:26.684Z,5.43
2023-03-12T17:02:28.099Z,5.46
2023-03-12T17:06:30.827Z,5.47
2023-03-12T17:10:32.146Z,5.38
2023-03-12T17:14:33.511Z,5.39
2023-03-12T17:18:34.861Z,5.28
2023-03-12T17:22:37.562Z,5.25
2023-03-12T17:26:38.902Z,5.19
2023-03-12T17:30:40.226Z,5.16
2023-03-12T17:34:41.574Z,5.06
2023-03-12T17:38:44.503Z,5.10
2023-03-12T17:42:45.878Z,5.09
2023-03-12T17:46:58.818Z,5.02
2023-03-12T17:51:04.680Z,5.06
2023-03-12T17:55:09.874Z,5.03
2023-03-12T17:59:12.419Z,5.15
2023-03-12T18:03:13.830Z,5.04
2023-03-12T18:07:15.357Z,5.13
2023-03-12T18:11:18.041Z,5.18
2023-03-12T18:15:19.388Z,5.11
2023-03-12T18:19:20.736Z,5.14
2023-03-12T18:23:22.130Z,5.14
2023-03-12T18:27:24.857Z,5.12
2023-03-12T18:31:26.235Z,5.13
2023-03-12T18:35:27.763Z,5.13
2023-03-12T18:39:29.191Z,5.10
2023-03-12T18:43:32.141Z,5.03
2023-03-12T18:47:33.497Z,5.01
2023-03-12T18:51:34.925Z,4.96
2023-03-12T18:55:36.302Z,4.84
2023-03-12T18:59:39.004Z,4.81
2023-03-12T19:03:40.355Z,4.72
2023-03-12T19:07:41.745Z,4.68
2023-03-12T19:11:43.205Z,4.76
2023-03-12T19:15:45.929Z,4.69
2023-03-12T19:19:47.366Z,4.71
2023-03-12T19:23:48.745Z,4.67
2023-03-12T19:27:50.106Z,4.63
2023-03-12T19:31:52.869Z,4.62
2023-03-12T19:35:54.594Z,4.60
2023-03-12T19:39:56.104Z,4.63
2023-03-12T19:43:57.487Z,4.64
2023-03-12T19:48:00.249Z,4.66
2023-03-12T19:52:01.614Z,4.66
2023-03-12T19:56:03.447Z,4.81
2023-03-12T20:00:05.436Z,4.74
2023-03-12T20:04:08.365Z,4.84
2023-03-12T20:08:09.710Z,4.87
2023-03-12T20:12:11.044Z,4.86
2023-03-12T20:16:12.465Z,4.87
2023-03-12T20:20:15.213Z,4.93
2023-03-12T20:24:16.559Z,4.94
2023-03-12T20:28:17.986Z,5.02
2023-03-12T20:32:19.395Z,4.95
2023-03-12T20:36:22.160Z,4.99
2023-03-12T20:40:23.506Z,4.93
2023-03-12T20:44:24.857Z,5.02
2023-03-12T20:48:26.180Z,4.81
2023-03-12T20:52:28.868Z,4.85
2023-03-12T20:56:30.218Z,5.02
2023-03-12T21:00:31.710Z,5.02
2023-03-12T21:04:33.036Z,5.05
2023-03-12T21:08:35.761Z,5.28
2023-03-12T21:12:37.096Z,5.25
2023-03-12T21:16:38.522Z,5.31
2023-03-12T21:20:39.968Z,5.29
2023-03-12T21:24:42.657Z,5.38
2023-03-12T21:28:44.104Z,5.41
2023-03-12T21:32:45.478Z,5.64
2023-03-12T21:36:47.112Z,5.62
2023-03-12T21:40:49.815Z,5.77
2023-03-12T21:44:51.168Z,5.76
2023-03-12T21:48:52.545Z,5.87
2023-03-12T21:52:53.917Z,5.92
2023-03-12T21:56:56.608Z,5.85
2023-03-12T22:01:04.858Z,5.89
2023-03-12T22:05:06.841Z,6.04
2023-03-12T22:09:08.199Z,6.01
2023-03-12T22:13:10.878Z,6.01
2023-03-12T22:17:12.215Z,6.02
2023-03-12T22:21:14.746Z,6.02
2023-03-12T22:25:16.230Z,5.93
2023-03-12T22:29:18.907Z,6.04
2023-03-12T22:33:20.278Z,5.98
2023-03-12T22:37:21.685Z,6.13
2023-03-12T22:41:24.037Z,6.10
2023-03-12T22:45:26.714Z,6.05
2023-03-12T22:49:28.091Z,5.94
2023-03-12T22:53:29.532Z,5.99
2023-03-12T22:57:32.981Z,6.03
2023-03-12T23:01:35.700Z,6.06
2023-03-12T23:05:37.060Z,6.12
2023-03-12T23:09:38.488Z,6.14
2023-03-12T23:13:41.029Z,6.08
2023-03-12T23:17:43.716Z,6.04
2023-03-12T23:21:45.079Z,5.96
2023-03-12T23:25:51.644Z,5.97
2023-03-12T23:29:52.993Z,6.02
2023-03-12T23:33:56.004Z,6.01
2023-03-12T23:37:57.464Z,6.17
2023-03-12T23:41:58.816Z,6.15
2023-03-12T23:46:00.828Z,6.10
2023-03-12T23:50:03.734Z,6.19
2023-03-12T23:54:05.157Z,6.20
2023-03-12T23:58:06.536Z,6.24
